ANZ051M NZAA-NZNP
Flight info
| Callsign | ANZ051M |
|---|---|
| Flight time | 0h 34m |
| Altitude | 16000 |
| Route | IGBAT Y832 EKALI Y244 DOBBO |
| Aircraft | AT76/M-VGD/C |
Departure
| Time | 2026-04-17 08:44 |
|---|---|
| Airport | Auckland International Airport (NZAA) |
Arrival
| Time | 2026-04-17 09:19 |
|---|---|
| Airport | New Plymouth Airport (NZNP) |
| Time | Latitude | Longitude | Altitude | Speed | Heading |
|---|---|---|---|---|---|
| 2026-04-17 08:26 | -37.00640 | 174.79392 | 22 ft | 0 kts | 1° |
| 2026-04-17 08:39 | -37.00637 | 174.79395 | 26 ft | 2 kts | 29° |
| 2026-04-17 08:39 | -37.00649 | 174.79430 | 25 ft | 8 kts | 137° |
| 2026-04-17 08:39 | -37.00680 | 174.79508 | 22 ft | 11 kts | 74° |
| 2026-04-17 08:40 | -37.00655 | 174.79595 | 22 ft | 10 kts | 69° |
| 2026-04-17 08:40 | -37.00633 | 174.79677 | 24 ft | 10 kts | 71° |
| 2026-04-17 08:40 | -37.00610 | 174.79761 | 22 ft | 11 kts | 71° |
| 2026-04-17 08:40 | -37.00585 | 174.79851 | 22 ft | 11 kts | 71° |
| 2026-04-17 08:41 | -37.00574 | 174.79944 | 22 ft | 11 kts | 116° |
| 2026-04-17 08:41 | -37.00640 | 174.79992 | 22 ft | 10 kts | 142° |
| 2026-04-17 08:41 | -37.00688 | 174.80059 | 23 ft | 9 kts | 130° |
| 2026-04-17 08:41 | -37.00705 | 174.80084 | 23 ft | 0 kts | 132° |
| 2026-04-17 08:42 | -37.00720 | 174.80105 | 22 ft | 6 kts | 132° |
| 2026-04-17 08:43 | -37.00761 | 174.80141 | 23 ft | 7 kts | 175° |
| 2026-04-17 08:43 | -37.00796 | 174.80102 | 24 ft | 2 kts | 249° |
| 2026-04-17 08:43 | -37.00802 | 174.80081 | 22 ft | 4 kts | 250° |
| 2026-04-17 08:43 | -37.00842 | 174.79930 | 22 ft | 45 kts | 252° |
| 2026-04-17 08:44 | -37.01015 | 174.79312 | 23 ft | 101 kts | 250° |
| 2026-04-17 08:44 | -37.01284 | 174.78336 | 106 ft | 128 kts | 253° |
| 2026-04-17 08:44 | -37.01573 | 174.77280 | 515 ft | 128 kts | 253° |
| 2026-04-17 08:44 | -37.01875 | 174.76222 | 805 ft | 134 kts | 248° |
| 2026-04-17 08:45 | -37.02523 | 174.75260 | 881 ft | 157 kts | 218° |
| 2026-04-17 08:45 | -37.03591 | 174.74719 | 934 ft | 178 kts | 187° |
| 2026-04-17 08:45 | -37.04853 | 174.74775 | 1078 ft | 185 kts | 180° |
| 2026-04-17 08:45 | -37.06139 | 174.74837 | 1348 ft | 186 kts | 182° |
| 2026-04-17 08:46 | -37.07433 | 174.74829 | 1672 ft | 186 kts | 186° |
| 2026-04-17 08:46 | -37.08722 | 174.74727 | 2042 ft | 186 kts | 191° |
| 2026-04-17 08:46 | -37.10005 | 174.74530 | 2420 ft | 187 kts | 194° |
| 2026-04-17 08:46 | -37.11287 | 174.74266 | 2823 ft | 186 kts | 195° |
| 2026-04-17 08:47 | -37.12546 | 174.73966 | 3206 ft | 187 kts | 196° |
| 2026-04-17 08:47 | -37.13829 | 174.73639 | 3587 ft | 188 kts | 197° |
| 2026-04-17 08:47 | -37.15113 | 174.73311 | 3988 ft | 188 kts | 197° |
| 2026-04-17 08:47 | -37.16395 | 174.72983 | 4380 ft | 188 kts | 197° |
| 2026-04-17 08:48 | -37.17676 | 174.72652 | 4782 ft | 188 kts | 197° |
| 2026-04-17 08:48 | -37.18960 | 174.72322 | 5178 ft | 188 kts | 197° |
| 2026-04-17 08:48 | -37.20240 | 174.71997 | 5558 ft | 189 kts | 197° |
| 2026-04-17 08:48 | -37.21530 | 174.71674 | 5938 ft | 188 kts | 197° |
| 2026-04-17 08:49 | -37.22824 | 174.71358 | 6301 ft | 189 kts | 196° |
| 2026-04-17 08:49 | -37.24102 | 174.71066 | 6650 ft | 189 kts | 196° |
| 2026-04-17 08:49 | -37.25426 | 174.70775 | 6977 ft | 191 kts | 196° |
| 2026-04-17 08:49 | -37.26741 | 174.70484 | 7285 ft | 192 kts | 197° |
| 2026-04-17 08:50 | -37.28067 | 174.70193 | 7578 ft | 194 kts | 196° |
| 2026-04-17 08:50 | -37.29384 | 174.69906 | 7881 ft | 195 kts | 197° |
| 2026-04-17 08:50 | -37.30726 | 174.69611 | 8190 ft | 196 kts | 197° |
| 2026-04-17 08:50 | -37.32076 | 174.69318 | 8495 ft | 197 kts | 197° |
| 2026-04-17 08:51 | -37.33429 | 174.69021 | 8800 ft | 198 kts | 197° |
| 2026-04-17 08:51 | -37.34792 | 174.68720 | 9111 ft | 199 kts | 197° |
| 2026-04-17 08:51 | -37.36162 | 174.68426 | 9411 ft | 200 kts | 197° |
| 2026-04-17 08:51 | -37.37542 | 174.68126 | 9699 ft | 201 kts | 197° |
| 2026-04-17 08:52 | -37.38926 | 174.67822 | 9974 ft | 202 kts | 198° |
| 2026-04-17 08:52 | -37.40313 | 174.67515 | 10231 ft | 203 kts | 198° |
| 2026-04-17 08:52 | -37.41708 | 174.67209 | 10483 ft | 204 kts | 198° |
| 2026-04-17 08:52 | -37.43105 | 174.66901 | 10718 ft | 204 kts | 198° |
| 2026-04-17 08:53 | -37.44507 | 174.66596 | 10967 ft | 205 kts | 198° |
| 2026-04-17 08:53 | -37.45917 | 174.66287 | 11217 ft | 206 kts | 198° |
| 2026-04-17 08:53 | -37.47333 | 174.65978 | 11468 ft | 207 kts | 198° |
| 2026-04-17 08:53 | -37.48751 | 174.65665 | 11711 ft | 208 kts | 198° |
| 2026-04-17 08:54 | -37.50177 | 174.65352 | 11958 ft | 208 kts | 198° |
| 2026-04-17 08:54 | -37.51608 | 174.65037 | 12204 ft | 209 kts | 198° |
| 2026-04-17 08:54 | -37.53043 | 174.64722 | 12434 ft | 209 kts | 198° |
| 2026-04-17 08:54 | -37.54482 | 174.64403 | 12673 ft | 210 kts | 198° |
| 2026-04-17 08:55 | -37.55926 | 174.64083 | 12911 ft | 211 kts | 198° |
| 2026-04-17 08:55 | -37.57348 | 174.63736 | 13137 ft | 211 kts | 199° |
| 2026-04-17 08:55 | -37.58806 | 174.63355 | 13384 ft | 211 kts | 200° |
| 2026-04-17 08:55 | -37.60222 | 174.62944 | 13616 ft | 211 kts | 201° |
| 2026-04-17 08:56 | -37.61652 | 174.62501 | 13838 ft | 212 kts | 201° |
| 2026-04-17 08:56 | -37.63087 | 174.62056 | 14035 ft | 213 kts | 201° |
| 2026-04-17 08:56 | -37.64525 | 174.61608 | 14234 ft | 213 kts | 201° |
| 2026-04-17 08:56 | -37.65967 | 174.61159 | 14429 ft | 214 kts | 201° |
| 2026-04-17 08:57 | -37.67412 | 174.60710 | 14610 ft | 214 kts | 202° |
| 2026-04-17 08:57 | -37.68864 | 174.60257 | 14791 ft | 215 kts | 202° |
| 2026-04-17 08:57 | -37.70315 | 174.59805 | 14972 ft | 215 kts | 202° |
| 2026-04-17 08:57 | -37.71774 | 174.59350 | 15148 ft | 216 kts | 202° |
| 2026-04-17 08:58 | -37.73232 | 174.58896 | 15354 ft | 216 kts | 202° |
| 2026-04-17 08:58 | -37.74696 | 174.58439 | 15543 ft | 217 kts | 202° |
| 2026-04-17 08:58 | -37.75668 | 174.58135 | 15662 ft | 217 kts | 202° |
| 2026-04-17 08:58 | -37.77145 | 174.57675 | 15844 ft | 218 kts | 202° |
| 2026-04-17 08:59 | -37.78635 | 174.57208 | 15924 ft | 223 kts | 202° |
| 2026-04-17 08:59 | -37.80170 | 174.56725 | 15977 ft | 230 kts | 201° |
| 2026-04-17 08:59 | -37.81748 | 174.56234 | 15993 ft | 236 kts | 201° |
| 2026-04-17 08:59 | -37.83365 | 174.55730 | 16001 ft | 242 kts | 201° |
| 2026-04-17 09:00 | -37.85019 | 174.55213 | 16011 ft | 247 kts | 201° |
| 2026-04-17 09:00 | -37.86703 | 174.54687 | 16008 ft | 251 kts | 201° |
| 2026-04-17 09:00 | -37.88406 | 174.54155 | 16006 ft | 254 kts | 201° |
| 2026-04-17 09:00 | -37.90108 | 174.53620 | 16008 ft | 257 kts | 201° |
| 2026-04-17 09:01 | -37.91850 | 174.53075 | 16009 ft | 259 kts | 201° |
| 2026-04-17 09:01 | -37.93605 | 174.52524 | 16009 ft | 260 kts | 201° |
| 2026-04-17 09:01 | -37.95369 | 174.51968 | 16008 ft | 262 kts | 201° |
| 2026-04-17 09:01 | -37.97142 | 174.51415 | 16004 ft | 263 kts | 201° |
| 2026-04-17 09:02 | -37.98879 | 174.50749 | 16003 ft | 259 kts | 208° |
| 2026-04-17 09:02 | -38.00537 | 174.49870 | 16001 ft | 258 kts | 211° |
| 2026-04-17 09:02 | -38.02179 | 174.48945 | 16003 ft | 259 kts | 211° |
| 2026-04-17 09:02 | -38.03832 | 174.48029 | 16005 ft | 260 kts | 210° |
| 2026-04-17 09:03 | -38.05503 | 174.47149 | 16003 ft | 260 kts | 209° |
| 2026-04-17 09:03 | -38.07186 | 174.46281 | 16000 ft | 261 kts | 209° |
| 2026-04-17 09:03 | -38.08870 | 174.45414 | 15998 ft | 261 kts | 209° |
| 2026-04-17 09:03 | -38.10529 | 174.44561 | 16000 ft | 261 kts | 209° |
| 2026-04-17 09:04 | -38.12219 | 174.43703 | 16001 ft | 261 kts | 209° |
| 2026-04-17 09:04 | -38.13906 | 174.42848 | 15999 ft | 261 kts | 209° |
| 2026-04-17 09:04 | -38.15599 | 174.41997 | 15997 ft | 261 kts | 209° |
| 2026-04-17 09:04 | -38.17285 | 174.41131 | 15999 ft | 261 kts | 209° |
| 2026-04-17 09:05 | -38.18969 | 174.40261 | 15997 ft | 261 kts | 209° |
| 2026-04-17 09:05 | -38.20655 | 174.39388 | 16000 ft | 262 kts | 210° |
| 2026-04-17 09:05 | -38.22343 | 174.38515 | 15995 ft | 262 kts | 210° |
| 2026-04-17 09:05 | -38.24027 | 174.37642 | 15993 ft | 262 kts | 210° |
| 2026-04-17 09:06 | -38.25718 | 174.36765 | 15995 ft | 262 kts | 210° |
| 2026-04-17 09:06 | -38.27406 | 174.35890 | 15994 ft | 262 kts | 210° |
| 2026-04-17 09:06 | -38.29095 | 174.35012 | 15990 ft | 262 kts | 210° |
| 2026-04-17 09:06 | -38.30784 | 174.34135 | 15993 ft | 262 kts | 210° |
| 2026-04-17 09:07 | -38.32502 | 174.33238 | 15662 ft | 274 kts | 210° |
| 2026-04-17 09:07 | -38.34303 | 174.32278 | 15242 ft | 286 kts | 210° |
| 2026-04-17 09:07 | -38.36191 | 174.31430 | 14814 ft | 292 kts | 200° |
| 2026-04-17 09:07 | -38.38195 | 174.30955 | 14388 ft | 295 kts | 195° |
| 2026-04-17 09:08 | -38.40233 | 174.30546 | 13960 ft | 296 kts | 195° |
| 2026-04-17 09:08 | -38.42240 | 174.30113 | 13510 ft | 296 kts | 197° |
| 2026-04-17 09:08 | -38.44257 | 174.29605 | 13039 ft | 294 kts | 198° |
| 2026-04-17 09:08 | -38.46257 | 174.29081 | 12581 ft | 293 kts | 198° |
| 2026-04-17 09:09 | -38.48252 | 174.28566 | 12125 ft | 291 kts | 198° |
| 2026-04-17 09:09 | -38.50239 | 174.28055 | 11675 ft | 290 kts | 198° |
| 2026-04-17 09:09 | -38.52218 | 174.27572 | 11240 ft | 289 kts | 196° |
| 2026-04-17 09:09 | -38.54193 | 174.27157 | 10817 ft | 286 kts | 194° |
| 2026-04-17 09:10 | -38.58096 | 174.26435 | 9988 ft | 280 kts | 194° |
| 2026-04-17 09:10 | -38.59903 | 174.26093 | 9573 ft | 278 kts | 194° |
| 2026-04-17 09:10 | -38.61807 | 174.25731 | 9132 ft | 276 kts | 194° |
| 2026-04-17 09:11 | -38.63701 | 174.25371 | 8699 ft | 274 kts | 194° |
| 2026-04-17 09:11 | -38.65584 | 174.25013 | 8274 ft | 273 kts | 194° |
| 2026-04-17 09:11 | -38.67435 | 174.24668 | 8101 ft | 263 kts | 194° |
| 2026-04-17 09:11 | -38.69203 | 174.24348 | 8055 ft | 250 kts | 194° |
| 2026-04-17 09:12 | -38.70884 | 174.24059 | 8032 ft | 239 kts | 194° |
| 2026-04-17 09:12 | -38.72513 | 174.23767 | 7834 ft | 238 kts | 195° |
| 2026-04-17 09:12 | -38.74149 | 174.23460 | 7492 ft | 243 kts | 194° |
| 2026-04-17 09:12 | -38.75836 | 174.23191 | 7175 ft | 247 kts | 185° |
| 2026-04-17 09:13 | -38.77533 | 174.23704 | 6872 ft | 255 kts | 162° |
| 2026-04-17 09:13 | -38.79153 | 174.24651 | 6578 ft | 257 kts | 157° |
| 2026-04-17 09:13 | -38.80760 | 174.25669 | 6307 ft | 258 kts | 157° |
| 2026-04-17 09:13 | -38.82370 | 174.26685 | 6018 ft | 257 kts | 157° |
| 2026-04-17 09:14 | -38.83986 | 174.27653 | 5766 ft | 256 kts | 158° |
| 2026-04-17 09:14 | -38.85609 | 174.28584 | 5524 ft | 255 kts | 159° |
| 2026-04-17 09:14 | -38.87227 | 174.29506 | 5298 ft | 253 kts | 159° |
| 2026-04-17 09:14 | -38.88821 | 174.30413 | 5091 ft | 248 kts | 159° |
| 2026-04-17 09:15 | -38.90377 | 174.31308 | 4887 ft | 242 kts | 159° |
| 2026-04-17 09:15 | -38.91900 | 174.32180 | 4673 ft | 237 kts | 159° |
| 2026-04-17 09:15 | -38.93418 | 174.32908 | 4107 ft | 227 kts | 175° |
| 2026-04-17 09:15 | -38.94893 | 174.32586 | 3530 ft | 208 kts | 216° |
| 2026-04-17 09:16 | -38.95870 | 174.31366 | 3025 ft | 190 kts | 240° |
| 2026-04-17 09:16 | -38.96572 | 174.29976 | 2560 ft | 179 kts | 248° |
| 2026-04-17 09:16 | -38.97110 | 174.28584 | 2125 ft | 170 kts | 252° |
| 2026-04-17 09:16 | -38.97575 | 174.27241 | 1706 ft | 158 kts | 253° |
| 2026-04-17 09:17 | -38.98008 | 174.25996 | 1476 ft | 143 kts | 253° |
| 2026-04-17 09:17 | -38.98376 | 174.24918 | 1287 ft | 123 kts | 255° |
| 2026-04-17 09:17 | -38.98701 | 174.23938 | 1104 ft | 118 kts | 255° |
| 2026-04-17 09:17 | -38.99033 | 174.22970 | 955 ft | 119 kts | 256° |
| 2026-04-17 09:18 | -38.99361 | 174.21989 | 779 ft | 118 kts | 255° |
| 2026-04-17 09:18 | -38.99652 | 174.21053 | 593 ft | 110 kts | 255° |
| 2026-04-17 09:18 | -38.99962 | 174.20146 | 398 ft | 111 kts | 252° |
| 2026-04-17 09:18 | -39.00277 | 174.19224 | 265 ft | 114 kts | 253° |
| 2026-04-17 09:19 | -39.00598 | 174.18295 | 127 ft | 111 kts | 255° |
| 2026-04-17 09:19 | -39.00860 | 174.17536 | 101 ft | 54 kts | 245° |
| 2026-04-17 09:19 | -39.00918 | 174.17351 | 100 ft | 9 kts | 260° |
| 2026-04-17 09:19 | -39.00937 | 174.17316 | 100 ft | 3 kts | 161° |
| 2026-04-17 09:20 | -39.00929 | 174.17353 | 100 ft | 9 kts | 60° |
| 2026-04-17 09:20 | -39.00888 | 174.17459 | 101 ft | 16 kts | 66° |
| 2026-04-17 09:20 | -39.00840 | 174.17597 | 100 ft | 18 kts | 65° |
| 2026-04-17 09:20 | -39.00789 | 174.17741 | 99 ft | 17 kts | 66° |
| 2026-04-17 09:21 | -39.00807 | 174.17804 | 100 ft | 12 kts | 155° |
| 2026-04-17 09:21 | -39.00879 | 174.17842 | 99 ft | 9 kts | 158° |
| 2026-04-17 09:21 | -39.00895 | 174.17850 | 99 ft | 0 kts | 161° |
| 2026-04-17 09:21 | -39.00908 | 174.17855 | 99 ft | 6 kts | 169° |
| 2026-04-17 09:22 | -39.00935 | 174.17861 | 99 ft | 2 kts | 172° |
| 2026-04-17 09:22 | -39.00945 | 174.17852 | 99 ft | 1 kts | 233° |
| 2026-04-17 09:22 | -39.00945 | 174.17846 | 99 ft | 2 kts | 264° |
| 2026-04-17 09:22 | -39.00945 | 174.17845 | 99 ft | 0 kts | 264° |